Aérodrome :
LOGIN :

S'inscrire | Disclaimer

   EN    FR    IT 

 










Légende :    VFR   VFR Marginal   IFR   IFR Intensif   IFR Très Intensif
Visi : 
Plafond : 
>= 8 km
>= 3000ft
5 à 8 km
1000 à 3000 ft
1500m à 5 km
500 à 1000 ft
800 à 1500m
200 à 500 ft
< 800m
< 200 ft
Symboles :   Orages  Brouillard  Fortes neiges  Fortes précipitations  Vent > 20 kt
SIGMETs :   Divers  Orages  Givrage  Turbulence  Onde Orograph.  Cendres Volcan.







- Altitude de l'aérodrome : 82 ft
- Code IATA : AAR


EKAH - Aarhus Tirstrup

DERNIER METAR :
  • 231450Z AUTO 29016KT 9999NDV NCD 10/01 Q1026

METARs EXPIRÉS :
  • 231420Z AUTO 30018KT 9999NDV FEW043/// 10/M00 Q1026
  • 231350Z AUTO 28018KT 9999NDV NCD 11/01 Q1025
  • 231320Z AUTO 28020KT 9999NDV FEW046/// 11/01 Q1025
  • 231250Z AUTO 28019KT 260V320 9999NDV FEW045/// 11/01 Q1025
  • 231220Z AUTO 28019KT 9999NDV BKN042/// 11/03 Q1025

TAF TAF EKAH
Valide du 23 à 12h jusqu'au 24 à 12h UTC


231113Z 2312/2412 29016KT 9999 SCT020
BECMG 2317/2319 27006KT
TEMPO 2410/2412 -SHRA SCT025CB
Pas de NOTAMs connus pour ce terrain.



MET'MAP, la Météo Aéronautique d'un coup d'oeil ! - Copyright ORBIFLY Décembre 2007 - Disclaimer

ORBIFLY MET'MAP TEAM :

Programmation & Développement : Alexandra Zaïnal
Conception & Développement : Baudouin d'Aumeries
Co-Programmation & Développement : Marc-Olivier Méhu
Soutien technique & logistique : Manuel Goepfert

Contact : metmap@orbifly.com




SOURCES & CREDITS :

   NOAA